sensor_id;sensor_type;location;lat;lon;timestamp;P1;durP1;ratioP1;P2;durP2;ratioP2
40691;SDS011;26377;53.344;14.886;2022-09-17T00:01:43;5.03;;;1.10;;
40691;SDS011;26377;53.344;14.886;2022-09-17T00:04:13;4.92;;;1.42;;
40691;SDS011;26377;53.344;14.886;2022-09-17T00:06:42;3.05;;;1.00;;
40691;SDS011;26377;53.344;14.886;2022-09-17T00:09:09;2.47;;;1.20;;
40691;SDS011;26377;53.344;14.886;2022-09-17T00:11:39;6.37;;;1.30;;
40691;SDS011;26377;53.344;14.886;2022-09-17T00:14:12;3.90;;;0.90;;
40691;SDS011;26377;53.344;14.886;2022-09-17T00:16:43;2.50;;;0.82;;
40691;SDS011;26377;53.344;14.886;2022-09-17T00:19:15;3.22;;;1.30;;
40691;SDS011;26377;53.344;14.886;2022-09-17T00:21:46;5.33;;;1.50;;
40691;SDS011;26377;53.344;14.886;2022-09-17T00:24:15;4.67;;;1.15;;
40691;SDS011;26377;53.344;14.886;2022-09-17T00:26:46;3.42;;;1.20;;
40691;SDS011;26377;53.344;14.886;2022-09-17T00:29:14;4.22;;;1.10;;
40691;SDS011;26377;53.344;14.886;2022-09-17T00:31:41;4.50;;;1.37;;
40691;SDS011;26377;53.344;14.886;2022-09-17T00:34:10;4.30;;;1.00;;
40691;SDS011;26377;53.344;14.886;2022-09-17T00:36:39;4.80;;;0.85;;
40691;SDS011;26377;53.344;14.886;2022-09-17T00:39:08;4.60;;;0.95;;
40691;SDS011;26377;53.344;14.886;2022-09-17T00:41:38;4.07;;;1.10;;
40691;SDS011;26377;53.344;14.886;2022-09-17T00:47:11;6.17;;;1.42;;
40691;SDS011;26377;53.344;14.886;2022-09-17T00:49:44;1.60;;;0.68;;
40691;SDS011;26377;53.344;14.886;2022-09-17T00:52:21;1.60;;;0.60;;
40691;SDS011;26377;53.344;14.886;2022-09-17T00:57:48;4.03;;;0.93;;
40691;SDS011;26377;53.344;14.886;2022-09-17T01:00:19;2.55;;;0.80;;
40691;SDS011;26377;53.344;14.886;2022-09-17T01:02:48;1.98;;;0.93;;
40691;SDS011;26377;53.344;14.886;2022-09-17T01:05:15;3.17;;;0.80;;
40691;SDS011;26377;53.344;14.886;2022-09-17T01:10:47;3.90;;;1.20;;
40691;SDS011;26377;53.344;14.886;2022-09-17T01:19:07;4.70;;;1.62;;
40691;SDS011;26377;53.344;14.886;2022-09-17T01:33:11;2.90;;;0.98;;
40691;SDS011;26377;53.344;14.886;2022-09-17T01:38:27;5.33;;;1.12;;
40691;SDS011;26377;53.344;14.886;2022-09-17T01:41:03;2.10;;;0.93;;
40691;SDS011;26377;53.344;14.886;2022-09-17T01:49:17;2.08;;;0.75;;
40691;SDS011;26377;53.344;14.886;2022-09-17T01:51:49;4.70;;;0.80;;
40691;SDS011;26377;53.344;14.886;2022-09-17T01:54:22;4.03;;;0.80;;
40691;SDS011;26377;53.344;14.886;2022-09-17T01:57:00;3.80;;;1.07;;
40691;SDS011;26377;53.344;14.886;2022-09-17T02:02:16;1.80;;;0.70;;
40691;SDS011;26377;53.344;14.886;2022-09-17T02:05:02;3.02;;;0.90;;
40691;SDS011;26377;53.344;14.886;2022-09-17T02:07:37;3.42;;;1.17;;
40691;SDS011;26377;53.344;14.886;2022-09-17T02:10:13;3.77;;;1.15;;
40691;SDS011;26377;53.344;14.886;2022-09-17T02:12:58;2.05;;;1.10;;
40691;SDS011;26377;53.344;14.886;2022-09-17T02:15:36;4.58;;;1.40;;
40691;SDS011;26377;53.344;14.886;2022-09-17T02:18:26;2.30;;;1.12;;
40691;SDS011;26377;53.344;14.886;2022-09-17T02:23:52;8.28;;;1.57;;
40691;SDS011;26377;53.344;14.886;2022-09-17T02:26:42;2.22;;;1.40;;
40691;SDS011;26377;53.344;14.886;2022-09-17T02:29:14;5.37;;;2.22;;
40691;SDS011;26377;53.344;14.886;2022-09-17T02:31:55;4.22;;;1.50;;
40691;SDS011;26377;53.344;14.886;2022-09-17T02:34:23;4.03;;;1.72;;
40691;SDS011;26377;53.344;14.886;2022-09-17T02:36:53;2.90;;;1.62;;
40691;SDS011;26377;53.344;14.886;2022-09-17T02:39:23;2.98;;;2.10;;
40691;SDS011;26377;53.344;14.886;2022-09-17T02:42:07;5.05;;;2.10;;
40691;SDS011;26377;53.344;14.886;2022-09-17T02:45:01;5.95;;;3.33;;
40691;SDS011;26377;53.344;14.886;2022-09-17T02:53:50;4.65;;;2.95;;
40691;SDS011;26377;53.344;14.886;2022-09-17T02:56:55;7.00;;;3.50;;
40691;SDS011;26377;53.344;14.886;2022-09-17T03:05:34;7.10;;;3.40;;
40691;SDS011;26377;53.344;14.886;2022-09-17T03:08:06;4.92;;;3.75;;
40691;SDS011;26377;53.344;14.886;2022-09-17T03:10:40;6.92;;;3.60;;
40691;SDS011;26377;53.344;14.886;2022-09-17T03:13:08;5.28;;;3.45;;
40691;SDS011;26377;53.344;14.886;2022-09-17T03:15:35;6.53;;;4.22;;
40691;SDS011;26377;53.344;14.886;2022-09-17T03:20:36;10.15;;;4.33;;
40691;SDS011;26377;53.344;14.886;2022-09-17T03:23:07;6.03;;;3.92;;
40691;SDS011;26377;53.344;14.886;2022-09-17T03:28:07;7.70;;;3.92;;
40691;SDS011;26377;53.344;14.886;2022-09-17T03:30:35;5.47;;;3.85;;
40691;SDS011;26377;53.344;14.886;2022-09-17T03:33:05;7.65;;;3.98;;
40691;SDS011;26377;53.344;14.886;2022-09-17T03:35:32;6.65;;;3.70;;
40691;SDS011;26377;53.344;14.886;2022-09-17T03:38:01;7.35;;;4.33;;
40691;SDS011;26377;53.344;14.886;2022-09-17T03:40:30;12.20;;;4.33;;
40691;SDS011;26377;53.344;14.886;2022-09-17T03:42:58;9.88;;;4.05;;
40691;SDS011;26377;53.344;14.886;2022-09-17T03:45:25;7.65;;;3.98;;
40691;SDS011;26377;53.344;14.886;2022-09-17T03:47:52;8.83;;;4.47;;
40691;SDS011;26377;53.344;14.886;2022-09-17T03:50:21;8.45;;;4.65;;
40691;SDS011;26377;53.344;14.886;2022-09-17T03:52:50;7.33;;;3.62;;
40691;SDS011;26377;53.344;14.886;2022-09-17T03:55:18;8.00;;;4.10;;
40691;SDS011;26377;53.344;14.886;2022-09-17T03:57:46;7.60;;;4.55;;
40691;SDS011;26377;53.344;14.886;2022-09-17T04:00:14;7.25;;;3.95;;
40691;SDS011;26377;53.344;14.886;2022-09-17T04:02:42;9.63;;;4.30;;
40691;SDS011;26377;53.344;14.886;2022-09-17T04:05:13;8.70;;;3.80;;
40691;SDS011;26377;53.344;14.886;2022-09-17T04:07:41;10.05;;;4.20;;
40691;SDS011;26377;53.344;14.886;2022-09-17T04:10:11;5.95;;;3.70;;
40691;SDS011;26377;53.344;14.886;2022-09-17T04:12:39;6.65;;;4.12;;
40691;SDS011;26377;53.344;14.886;2022-09-17T04:15:09;9.33;;;4.28;;
40691;SDS011;26377;53.344;14.886;2022-09-17T04:17:38;10.13;;;4.12;;
40691;SDS011;26377;53.344;14.886;2022-09-17T04:20:05;6.85;;;3.83;;
40691;SDS011;26377;53.344;14.886;2022-09-17T04:22:38;6.42;;;3.55;;
40691;SDS011;26377;53.344;14.886;2022-09-17T04:25:06;8.98;;;3.60;;
40691;SDS011;26377;53.344;14.886;2022-09-17T04:27:35;6.72;;;3.70;;
40691;SDS011;26377;53.344;14.886;2022-09-17T04:30:03;11.40;;;4.05;;
40691;SDS011;26377;53.344;14.886;2022-09-17T04:32:32;6.45;;;3.10;;
40691;SDS011;26377;53.344;14.886;2022-09-17T04:35:02;7.10;;;3.70;;
40691;SDS011;26377;53.344;14.886;2022-09-17T04:37:29;6.35;;;3.20;;
40691;SDS011;26377;53.344;14.886;2022-09-17T04:40:00;8.53;;;5.78;;
40691;SDS011;26377;53.344;14.886;2022-09-17T04:42:29;9.50;;;3.05;;
40691;SDS011;26377;53.344;14.886;2022-09-17T04:44:56;7.90;;;3.22;;
40691;SDS011;26377;53.344;14.886;2022-09-17T04:47:25;6.65;;;3.10;;
40691;SDS011;26377;53.344;14.886;2022-09-17T04:49:55;8.68;;;3.45;;
40691;SDS011;26377;53.344;14.886;2022-09-17T04:52:24;13.10;;;3.77;;
40691;SDS011;26377;53.344;14.886;2022-09-17T04:54:52;6.55;;;3.15;;
40691;SDS011;26377;53.344;14.886;2022-09-17T04:57:19;5.45;;;2.70;;
40691;SDS011;26377;53.344;14.886;2022-09-17T04:59:46;9.75;;;3.17;;
40691;SDS011;26377;53.344;14.886;2022-09-17T05:02:13;11.15;;;3.52;;
40691;SDS011;26377;53.344;14.886;2022-09-17T05:04:42;5.87;;;3.20;;
40691;SDS011;26377;53.344;14.886;2022-09-17T05:07:10;11.88;;;3.20;;
40691;SDS011;26377;53.344;14.886;2022-09-17T05:09:37;9.20;;;2.85;;
40691;SDS011;26377;53.344;14.886;2022-09-17T05:12:05;7.25;;;2.70;;
40691;SDS011;26377;53.344;14.886;2022-09-17T05:14:34;7.72;;;2.98;;
40691;SDS011;26377;53.344;14.886;2022-09-17T05:17:01;6.92;;;2.42;;
40691;SDS011;26377;53.344;14.886;2022-09-17T05:19:28;9.50;;;2.65;;
40691;SDS011;26377;53.344;14.886;2022-09-17T05:21:56;7.58;;;2.83;;
40691;SDS011;26377;53.344;14.886;2022-09-17T05:24:25;6.12;;;2.20;;
40691;SDS011;26377;53.344;14.886;2022-09-17T05:26:54;7.10;;;2.50;;
40691;SDS011;26377;53.344;14.886;2022-09-17T05:29:23;5.22;;;2.70;;
40691;SDS011;26377;53.344;14.886;2022-09-17T05:31:51;6.58;;;2.87;;
40691;SDS011;26377;53.344;14.886;2022-09-17T05:34:19;7.20;;;2.83;;
40691;SDS011;26377;53.344;14.886;2022-09-17T05:36:47;8.03;;;2.60;;
40691;SDS011;26377;53.344;14.886;2022-09-17T05:39:14;8.73;;;3.00;;
40691;SDS011;26377;53.344;14.886;2022-09-17T05:41:46;5.78;;;2.27;;
40691;SDS011;26377;53.344;14.886;2022-09-17T05:44:14;9.43;;;1.95;;
40691;SDS011;26377;53.344;14.886;2022-09-17T05:46:42;9.10;;;2.65;;
40691;SDS011;26377;53.344;14.886;2022-09-17T05:49:09;9.18;;;2.25;;
40691;SDS011;26377;53.344;14.886;2022-09-17T05:51:40;5.97;;;2.20;;
40691;SDS011;26377;53.344;14.886;2022-09-17T05:54:11;7.42;;;2.10;;
40691;SDS011;26377;53.344;14.886;2022-09-17T05:56:41;10.50;;;2.33;;
40691;SDS011;26377;53.344;14.886;2022-09-17T05:59:10;6.35;;;2.35;;
40691;SDS011;26377;53.344;14.886;2022-09-17T06:01:59;7.05;;;2.42;;
40691;SDS011;26377;53.344;14.886;2022-09-17T06:04:30;7.37;;;2.20;;
40691;SDS011;26377;53.344;14.886;2022-09-17T06:07:04;13.13;;;2.55;;
40691;SDS011;26377;53.344;14.886;2022-09-17T06:09:37;7.97;;;2.40;;
40691;SDS011;26377;53.344;14.886;2022-09-17T06:12:07;5.63;;;1.90;;
40691;SDS011;26377;53.344;14.886;2022-09-17T06:14:36;6.90;;;2.10;;
40691;SDS011;26377;53.344;14.886;2022-09-17T06:17:04;9.30;;;2.33;;
40691;SDS011;26377;53.344;14.886;2022-09-17T06:19:32;4.83;;;2.00;;
40691;SDS011;26377;53.344;14.886;2022-09-17T06:22:00;4.62;;;1.80;;
40691;SDS011;26377;53.344;14.886;2022-09-17T06:24:31;20.27;;;2.60;;
40691;SDS011;26377;53.344;14.886;2022-09-17T06:26:58;7.72;;;2.02;;
40691;SDS011;26377;53.344;14.886;2022-09-17T06:29:26;7.42;;;2.17;;
40691;SDS011;26377;53.344;14.886;2022-09-17T06:31:53;9.18;;;2.50;;
40691;SDS011;26377;53.344;14.886;2022-09-17T06:34:24;7.95;;;2.33;;
40691;SDS011;26377;53.344;14.886;2022-09-17T06:36:53;12.25;;;2.47;;
40691;SDS011;26377;53.344;14.886;2022-09-17T06:39:21;5.87;;;2.35;;
40691;SDS011;26377;53.344;14.886;2022-09-17T06:41:49;8.93;;;2.62;;
40691;SDS011;26377;53.344;14.886;2022-09-17T06:44:20;8.93;;;2.10;;
40691;SDS011;26377;53.344;14.886;2022-09-17T06:46:50;10.08;;;2.87;;
40691;SDS011;26377;53.344;14.886;2022-09-17T06:49:21;8.58;;;2.12;;
40691;SDS011;26377;53.344;14.886;2022-09-17T06:51:51;7.40;;;2.15;;
40691;SDS011;26377;53.344;14.886;2022-09-17T06:54:19;7.70;;;1.70;;
40691;SDS011;26377;53.344;14.886;2022-09-17T06:56:50;12.07;;;2.60;;
40691;SDS011;26377;53.344;14.886;2022-09-17T06:59:17;10.70;;;3.15;;
40691;SDS011;26377;53.344;14.886;2022-09-17T07:01:48;9.63;;;2.62;;
40691;SDS011;26377;53.344;14.886;2022-09-17T07:04:15;9.43;;;1.85;;
40691;SDS011;26377;53.344;14.886;2022-09-17T07:06:45;10.25;;;2.52;;
40691;SDS011;26377;53.344;14.886;2022-09-17T07:09:12;9.45;;;1.92;;
40691;SDS011;26377;53.344;14.886;2022-09-17T07:11:41;6.62;;;2.02;;
40691;SDS011;26377;53.344;14.886;2022-09-17T07:14:08;10.68;;;2.30;;
40691;SDS011;26377;53.344;14.886;2022-09-17T07:16:35;7.90;;;1.92;;
40691;SDS011;26377;53.344;14.886;2022-09-17T07:19:04;7.10;;;1.82;;
40691;SDS011;26377;53.344;14.886;2022-09-17T07:21:34;7.10;;;1.62;;
40691;SDS011;26377;53.344;14.886;2022-09-17T07:24:05;6.85;;;1.77;;
40691;SDS011;26377;53.344;14.886;2022-09-17T07:26:32;6.95;;;1.82;;
40691;SDS011;26377;53.344;14.886;2022-09-17T07:29:01;7.25;;;1.77;;
40691;SDS011;26377;53.344;14.886;2022-09-17T07:31:30;6.55;;;1.55;;
40691;SDS011;26377;53.344;14.886;2022-09-17T07:33:59;7.90;;;1.80;;
40691;SDS011;26377;53.344;14.886;2022-09-17T07:36:28;6.22;;;1.40;;
40691;SDS011;26377;53.344;14.886;2022-09-17T07:38:57;9.73;;;2.08;;
40691;SDS011;26377;53.344;14.886;2022-09-17T07:41:27;10.72;;;1.95;;
40691;SDS011;26377;53.344;14.886;2022-09-17T07:43:54;7.37;;;1.80;;
40691;SDS011;26377;53.344;14.886;2022-09-17T07:46:24;7.53;;;1.50;;
40691;SDS011;26377;53.344;14.886;2022-09-17T07:48:53;4.45;;;1.57;;
40691;SDS011;26377;53.344;14.886;2022-09-17T07:51:23;8.08;;;1.85;;
40691;SDS011;26377;53.344;14.886;2022-09-17T07:53:55;7.60;;;1.75;;
40691;SDS011;26377;53.344;14.886;2022-09-17T07:56:26;6.75;;;1.45;;
40691;SDS011;26377;53.344;14.886;2022-09-17T07:58:58;6.35;;;1.47;;
40691;SDS011;26377;53.344;14.886;2022-09-17T08:01:27;12.78;;;2.62;;
40691;SDS011;26377;53.344;14.886;2022-09-17T08:04:01;6.05;;;2.00;;
40691;SDS011;26377;53.344;14.886;2022-09-17T08:06:30;7.10;;;1.47;;
40691;SDS011;26377;53.344;14.886;2022-09-17T08:09:03;4.45;;;1.50;;
40691;SDS011;26377;53.344;14.886;2022-09-17T08:11:32;6.72;;;1.80;;
40691;SDS011;26377;53.344;14.886;2022-09-17T08:14:03;5.70;;;1.37;;
40691;SDS011;26377;53.344;14.886;2022-09-17T08:16:33;4.35;;;1.22;;
40691;SDS011;26377;53.344;14.886;2022-09-17T08:19:00;4.37;;;0.90;;
40691;SDS011;26377;53.344;14.886;2022-09-17T08:21:28;2.02;;;0.70;;
40691;SDS011;26377;53.344;14.886;2022-09-17T08:23:57;2.50;;;1.20;;
40691;SDS011;26377;53.344;14.886;2022-09-17T08:26:24;1.07;;;0.50;;
40691;SDS011;26377;53.344;14.886;2022-09-17T08:28:53;4.87;;;1.00;;
40691;SDS011;26377;53.344;14.886;2022-09-17T08:31:26;6.37;;;2.15;;
40691;SDS011;26377;53.344;14.886;2022-09-17T08:33:55;2.98;;;1.30;;
40691;SDS011;26377;53.344;14.886;2022-09-17T08:36:23;5.33;;;1.90;;
40691;SDS011;26377;53.344;14.886;2022-09-17T08:38:54;9.35;;;2.50;;
40691;SDS011;26377;53.344;14.886;2022-09-17T08:47:28;9.70;;;1.92;;
40691;SDS011;26377;53.344;14.886;2022-09-17T08:50:07;7.05;;;1.65;;
40691;SDS011;26377;53.344;14.886;2022-09-17T09:01:09;15.90;;;4.20;;
40691;SDS011;26377;53.344;14.886;2022-09-17T09:04:10;9.88;;;2.58;;
40691;SDS011;26377;53.344;14.886;2022-09-17T09:09:34;15.72;;;5.65;;
40691;SDS011;26377;53.344;14.886;2022-09-17T09:12:12;28.00;;;6.90;;
40691;SDS011;26377;53.344;14.886;2022-09-17T09:14:59;8.48;;;3.08;;
40691;SDS011;26377;53.344;14.886;2022-09-17T09:17:40;13.48;;;2.52;;
40691;SDS011;26377;53.344;14.886;2022-09-17T09:23:14;14.53;;;3.75;;
40691;SDS011;26377;53.344;14.886;2022-09-17T09:25:53;9.88;;;2.42;;
40691;SDS011;26377;53.344;14.886;2022-09-17T09:28:34;10.13;;;3.17;;
40691;SDS011;26377;53.344;14.886;2022-09-17T09:34:10;19.57;;;4.75;;
40691;SDS011;26377;53.344;14.886;2022-09-17T09:36:39;19.85;;;4.12;;
40691;SDS011;26377;53.344;14.886;2022-09-17T09:41:50;12.03;;;2.92;;
40691;SDS011;26377;53.344;14.886;2022-09-17T09:44:22;10.43;;;2.83;;
40691;SDS011;26377;53.344;14.886;2022-09-17T09:50:03;9.85;;;2.67;;
40691;SDS011;26377;53.344;14.886;2022-09-17T09:58:28;14.95;;;3.30;;
40691;SDS011;26377;53.344;14.886;2022-09-17T10:01:11;11.70;;;3.05;;
40691;SDS011;26377;53.344;14.886;2022-09-17T10:03:43;11.63;;;2.65;;
40691;SDS011;26377;53.344;14.886;2022-09-17T10:06:15;10.50;;;2.85;;
40691;SDS011;26377;53.344;14.886;2022-09-17T10:11:32;10.43;;;2.90;;
40691;SDS011;26377;53.344;14.886;2022-09-17T10:14:21;12.37;;;3.02;;
40691;SDS011;26377;53.344;14.886;2022-09-17T10:17:09;10.43;;;2.60;;
40691;SDS011;26377;53.344;14.886;2022-09-17T10:22:47;14.38;;;2.50;;
40691;SDS011;26377;53.344;14.886;2022-09-17T10:27:58;12.13;;;2.92;;
40691;SDS011;26377;53.344;14.886;2022-09-17T10:30:34;13.15;;;3.17;;
40691;SDS011;26377;53.344;14.886;2022-09-17T10:33:27;19.67;;;3.77;;
40691;SDS011;26377;53.344;14.886;2022-09-17T10:36:04;12.45;;;2.75;;
40691;SDS011;26377;53.344;14.886;2022-09-17T10:38:39;9.63;;;2.70;;
40691;SDS011;26377;53.344;14.886;2022-09-17T10:41:09;15.55;;;3.20;;
40691;SDS011;26377;53.344;14.886;2022-09-17T10:43:48;10.75;;;2.60;;
40691;SDS011;26377;53.344;14.886;2022-09-17T10:49:06;8.48;;;2.22;;
40691;SDS011;26377;53.344;14.886;2022-09-17T10:52:10;9.75;;;2.20;;
40691;SDS011;26377;53.344;14.886;2022-09-17T11:04:34;8.10;;;2.42;;
40691;SDS011;26377;53.344;14.886;2022-09-17T11:10:00;9.13;;;2.15;;
40691;SDS011;26377;53.344;14.886;2022-09-17T11:15:33;9.60;;;2.30;;
40691;SDS011;26377;53.344;14.886;2022-09-17T11:18:15;8.85;;;1.80;;
40691;SDS011;26377;53.344;14.886;2022-09-17T11:37:57;4.97;;;1.42;;
40691;SDS011;26377;53.344;14.886;2022-09-17T11:41:02;7.25;;;2.17;;
40691;SDS011;26377;53.344;14.886;2022-09-17T11:43:34;7.62;;;1.80;;
40691;SDS011;26377;53.344;14.886;2022-09-17T11:46:14;5.80;;;1.52;;
40691;SDS011;26377;53.344;14.886;2022-09-17T11:48:58;6.47;;;2.17;;
40691;SDS011;26377;53.344;14.886;2022-09-17T11:51:38;11.15;;;2.62;;
40691;SDS011;26377;53.344;14.886;2022-09-17T11:57:06;13.13;;;2.85;;
40691;SDS011;26377;53.344;14.886;2022-09-17T11:59:53;8.55;;;2.10;;
40691;SDS011;26377;53.344;14.886;2022-09-17T12:02:54;8.68;;;2.58;;
40691;SDS011;26377;53.344;14.886;2022-09-17T12:05:35;12.60;;;2.83;;
40691;SDS011;26377;53.344;14.886;2022-09-17T12:08:18;10.40;;;2.90;;
40691;SDS011;26377;53.344;14.886;2022-09-17T12:10:48;12.80;;;2.58;;
40691;SDS011;26377;53.344;14.886;2022-09-17T12:16:09;15.68;;;3.33;;
40691;SDS011;26377;53.344;14.886;2022-09-17T12:21:55;16.97;;;3.22;;
40691;SDS011;26377;53.344;14.886;2022-09-17T12:24:27;11.83;;;2.98;;
40691;SDS011;26377;53.344;14.886;2022-09-17T12:32:50;12.20;;;3.02;;
40691;SDS011;26377;53.344;14.886;2022-09-17T12:35:32;9.68;;;2.87;;
40691;SDS011;26377;53.344;14.886;2022-09-17T12:59:42;13.38;;;2.72;;
40691;SDS011;26377;53.344;14.886;2022-09-17T13:02:16;11.48;;;2.95;;
40691;SDS011;26377;53.344;14.886;2022-09-17T13:08:07;8.60;;;2.40;;
40691;SDS011;26377;53.344;14.886;2022-09-17T13:16:50;9.55;;;2.58;;
40691;SDS011;26377;53.344;14.886;2022-09-17T13:22:18;10.45;;;2.95;;
40691;SDS011;26377;53.344;14.886;2022-09-17T13:25:08;11.25;;;2.47;;
40691;SDS011;26377;53.344;14.886;2022-09-17T13:27:39;10.85;;;2.50;;
40691;SDS011;26377;53.344;14.886;2022-09-17T13:30:12;11.95;;;2.52;;
40691;SDS011;26377;53.344;14.886;2022-09-17T13:32:52;10.50;;;2.77;;
40691;SDS011;26377;53.344;14.886;2022-09-17T13:37:55;9.00;;;1.92;;
40691;SDS011;26377;53.344;14.886;2022-09-17T13:40:31;7.17;;;1.60;;
40691;SDS011;26377;53.344;14.886;2022-09-17T13:48:31;8.38;;;2.50;;
40691;SDS011;26377;53.344;14.886;2022-09-17T13:54:04;7.53;;;1.90;;
40691;SDS011;26377;53.344;14.886;2022-09-17T13:57:20;10.28;;;2.87;;
40691;SDS011;26377;53.344;14.886;2022-09-17T13:59:19;6.45;;;1.65;;
40691;SDS011;26377;53.344;14.886;2022-09-17T14:04:53;11.55;;;2.75;;
40691;SDS011;26377;53.344;14.886;2022-09-17T14:09:59;10.68;;;2.75;;
40691;SDS011;26377;53.344;14.886;2022-09-17T14:18:31;11.33;;;2.52;;
40691;SDS011;26377;53.344;14.886;2022-09-17T14:23:56;11.48;;;2.45;;
40691;SDS011;26377;53.344;14.886;2022-09-17T14:26:32;8.90;;;2.02;;
40691;SDS011;26377;53.344;14.886;2022-09-17T14:31:47;6.87;;;1.75;;
40691;SDS011;26377;53.344;14.886;2022-09-17T14:34:20;9.10;;;1.85;;
40691;SDS011;26377;53.344;14.886;2022-09-17T14:36:51;11.18;;;2.80;;
40691;SDS011;26377;53.344;14.886;2022-09-17T14:39:34;13.53;;;3.15;;
40691;SDS011;26377;53.344;14.886;2022-09-17T14:42:01;10.53;;;2.50;;
40691;SDS011;26377;53.344;14.886;2022-09-17T14:44:36;10.30;;;3.02;;
40691;SDS011;26377;53.344;14.886;2022-09-17T14:47:07;11.60;;;2.45;;
40691;SDS011;26377;53.344;14.886;2022-09-17T14:49:38;12.65;;;3.35;;
40691;SDS011;26377;53.344;14.886;2022-09-17T14:52:26;10.53;;;2.67;;
40691;SDS011;26377;53.344;14.886;2022-09-17T14:57:58;12.10;;;2.47;;
40691;SDS011;26377;53.344;14.886;2022-09-17T15:00:36;12.55;;;2.60;;
40691;SDS011;26377;53.344;14.886;2022-09-17T15:03:18;13.90;;;2.70;;
40691;SDS011;26377;53.344;14.886;2022-09-17T15:05:45;10.93;;;2.60;;
40691;SDS011;26377;53.344;14.886;2022-09-17T15:08:23;12.03;;;2.40;;
40691;SDS011;26377;53.344;14.886;2022-09-17T15:18:53;12.35;;;3.25;;
40691;SDS011;26377;53.344;14.886;2022-09-17T15:21:44;12.13;;;3.92;;
40691;SDS011;26377;53.344;14.886;2022-09-17T15:27:21;11.68;;;3.25;;
40691;SDS011;26377;53.344;14.886;2022-09-17T15:30:03;7.53;;;1.98;;
40691;SDS011;26377;53.344;14.886;2022-09-17T15:32:31;8.75;;;2.55;;
40691;SDS011;26377;53.344;14.886;2022-09-17T15:37:50;9.33;;;2.58;;
40691;SDS011;26377;53.344;14.886;2022-09-17T15:43:26;8.10;;;2.02;;
40691;SDS011;26377;53.344;14.886;2022-09-17T15:46:24;10.40;;;3.02;;
40691;SDS011;26377;53.344;14.886;2022-09-17T15:48:51;10.85;;;2.55;;
40691;SDS011;26377;53.344;14.886;2022-09-17T15:51:29;8.30;;;2.40;;
40691;SDS011;26377;53.344;14.886;2022-09-17T15:54:05;7.58;;;2.27;;
40691;SDS011;26377;53.344;14.886;2022-09-17T15:56:36;9.60;;;2.40;;
40691;SDS011;26377;53.344;14.886;2022-09-17T15:59:24;9.63;;;2.50;;
40691;SDS011;26377;53.344;14.886;2022-09-17T16:02:01;11.95;;;2.55;;
40691;SDS011;26377;53.344;14.886;2022-09-17T16:09:52;9.25;;;2.80;;
40691;SDS011;26377;53.344;14.886;2022-09-17T16:12:23;9.68;;;2.80;;
40691;SDS011;26377;53.344;14.886;2022-09-17T16:14:54;10.95;;;2.85;;
40691;SDS011;26377;53.344;14.886;2022-09-17T16:17:27;7.12;;;2.00;;
40691;SDS011;26377;53.344;14.886;2022-09-17T16:22:45;11.20;;;2.15;;
40691;SDS011;26377;53.344;14.886;2022-09-17T16:25:22;10.28;;;1.95;;
40691;SDS011;26377;53.344;14.886;2022-09-17T16:27:56;7.17;;;2.08;;
40691;SDS011;26377;53.344;14.886;2022-09-17T16:30:31;9.98;;;3.37;;
40691;SDS011;26377;53.344;14.886;2022-09-17T16:32:59;9.60;;;3.42;;
40691;SDS011;26377;53.344;14.886;2022-09-17T16:35:28;15.32;;;2.58;;
40691;SDS011;26377;53.344;14.886;2022-09-17T16:37:55;10.93;;;2.47;;
40691;SDS011;26377;53.344;14.886;2022-09-17T16:40:29;7.42;;;2.33;;
40691;SDS011;26377;53.344;14.886;2022-09-17T16:43:01;7.37;;;2.72;;
40691;SDS011;26377;53.344;14.886;2022-09-17T16:45:32;10.72;;;3.25;;
40691;SDS011;26377;53.344;14.886;2022-09-17T16:48:03;9.50;;;3.92;;
40691;SDS011;26377;53.344;14.886;2022-09-17T16:50:33;12.53;;;4.53;;
40691;SDS011;26377;53.344;14.886;2022-09-17T16:53:03;13.55;;;5.03;;
40691;SDS011;26377;53.344;14.886;2022-09-17T16:55:33;10.93;;;4.22;;
40691;SDS011;26377;53.344;14.886;2022-09-17T16:58:00;11.80;;;4.87;;
40691;SDS011;26377;53.344;14.886;2022-09-17T17:00:29;13.45;;;6.03;;
40691;SDS011;26377;53.344;14.886;2022-09-17T17:03:00;19.25;;;6.90;;
40691;SDS011;26377;53.344;14.886;2022-09-17T17:05:30;11.30;;;4.30;;
40691;SDS011;26377;53.344;14.886;2022-09-17T17:08:03;9.75;;;3.27;;
40691;SDS011;26377;53.344;14.886;2022-09-17T17:10:37;9.45;;;3.45;;
40691;SDS011;26377;53.344;14.886;2022-09-17T17:13:05;11.30;;;3.00;;
40691;SDS011;26377;53.344;14.886;2022-09-17T17:15:34;7.15;;;2.45;;
40691;SDS011;26377;53.344;14.886;2022-09-17T17:18:06;8.05;;;2.25;;
40691;SDS011;26377;53.344;14.886;2022-09-17T17:20:34;14.65;;;3.33;;
40691;SDS011;26377;53.344;14.886;2022-09-17T17:23:05;11.40;;;3.10;;
40691;SDS011;26377;53.344;14.886;2022-09-17T17:25:34;9.83;;;3.00;;
40691;SDS011;26377;53.344;14.886;2022-09-17T17:28:05;12.65;;;3.75;;
40691;SDS011;26377;53.344;14.886;2022-09-17T17:30:32;11.08;;;3.83;;
40691;SDS011;26377;53.344;14.886;2022-09-17T17:33:00;8.25;;;2.45;;
40691;SDS011;26377;53.344;14.886;2022-09-17T17:35:29;7.78;;;2.55;;
40691;SDS011;26377;53.344;14.886;2022-09-17T17:37:59;9.30;;;2.67;;
40691;SDS011;26377;53.344;14.886;2022-09-17T17:40:29;9.43;;;3.22;;
40691;SDS011;26377;53.344;14.886;2022-09-17T17:42:56;9.18;;;2.12;;
40691;SDS011;26377;53.344;14.886;2022-09-17T17:45:25;11.70;;;4.05;;
40691;SDS011;26377;53.344;14.886;2022-09-17T17:47:53;14.03;;;3.35;;
40691;SDS011;26377;53.344;14.886;2022-09-17T17:50:24;11.05;;;3.33;;
40691;SDS011;26377;53.344;14.886;2022-09-17T17:52:54;6.58;;;2.87;;
40691;SDS011;26377;53.344;14.886;2022-09-17T17:55:21;19.05;;;8.38;;
40691;SDS011;26377;53.344;14.886;2022-09-17T17:57:53;23.47;;;8.93;;
40691;SDS011;26377;53.344;14.886;2022-09-17T18:00:24;20.02;;;8.98;;
40691;SDS011;26377;53.344;14.886;2022-09-17T18:02:53;12.40;;;5.72;;
40691;SDS011;26377;53.344;14.886;2022-09-17T18:05:24;9.88;;;3.45;;
40691;SDS011;26377;53.344;14.886;2022-09-17T18:07:54;10.15;;;2.98;;
40691;SDS011;26377;53.344;14.886;2022-09-17T18:10:26;11.90;;;2.75;;
40691;SDS011;26377;53.344;14.886;2022-09-17T18:12:55;10.28;;;2.47;;
40691;SDS011;26377;53.344;14.886;2022-09-17T18:15:22;6.20;;;2.75;;
40691;SDS011;26377;53.344;14.886;2022-09-17T18:17:50;7.78;;;3.45;;
40691;SDS011;26377;53.344;14.886;2022-09-17T18:20:18;8.98;;;3.75;;
40691;SDS011;26377;53.344;14.886;2022-09-17T18:22:47;10.20;;;3.65;;
40691;SDS011;26377;53.344;14.886;2022-09-17T18:25:15;9.68;;;2.75;;
40691;SDS011;26377;53.344;14.886;2022-09-17T18:27:46;8.85;;;2.70;;
40691;SDS011;26377;53.344;14.886;2022-09-17T18:30:15;5.67;;;2.12;;
40691;SDS011;26377;53.344;14.886;2022-09-17T18:32:47;8.10;;;1.92;;
40691;SDS011;26377;53.344;14.886;2022-09-17T18:35:15;7.15;;;1.90;;
40691;SDS011;26377;53.344;14.886;2022-09-17T18:37:44;11.30;;;2.27;;
40691;SDS011;26377;53.344;14.886;2022-09-17T18:40:13;13.50;;;4.53;;
40691;SDS011;26377;53.344;14.886;2022-09-17T18:42:43;11.95;;;4.50;;
40691;SDS011;26377;53.344;14.886;2022-09-17T18:45:12;7.97;;;2.98;;
40691;SDS011;26377;53.344;14.886;2022-09-17T18:47:40;8.83;;;2.40;;
40691;SDS011;26377;53.344;14.886;2022-09-17T18:52:39;8.08;;;1.85;;
40691;SDS011;26377;53.344;14.886;2022-09-17T18:55:11;8.40;;;2.30;;
40691;SDS011;26377;53.344;14.886;2022-09-17T18:57:40;7.92;;;2.60;;
40691;SDS011;26377;53.344;14.886;2022-09-17T19:00:08;7.20;;;2.37;;
40691;SDS011;26377;53.344;14.886;2022-09-17T19:02:36;7.05;;;2.30;;
40691;SDS011;26377;53.344;14.886;2022-09-17T19:05:04;7.12;;;2.42;;